Time;durP1;ratioP1;P1;durP2;ratioP2;P2;SDS_P1;SDS_P2;PMS_P1;PMS_P2;Temp;Humidity;BMP_temperature;BMP_pressure;BME280_temperature;BME280_humidity;BME280_pressure;Samples;Min_cycle;Max_cycle;Signal;HPM_P1;HPM_P2
2022/08/12 00:44:57;;;;;;;3.05;1.90;;;;;;;22.98;51.75;100438.53;5054020;23;20361;-92
2022/08/12 00:48:32;;;;;;;7.10;1.90;;;;;;;22.78;53.03;100424.66;5011578;28;20058;-89
2022/08/12 00:55:24;;;;;;;4.65;1.90;;;;;;;22.74;53.83;100428.91;5019513;28;20049;-88
2022/08/12 00:58:20;;;;;;;11.35;2.13;;;;;;;22.68;54.38;100424.50;4993547;28;20047;-89
2022/08/12 01:00:46;;;;;;;5.57;1.67;;;;;;;22.59;54.81;100420.53;4975399;28;20050;-88
2022/08/12 01:03:18;;;;;;;8.57;2.33;;;;;;;22.60;54.61;100414.06;4975314;28;20043;-89
2022/08/12 01:11:30;;;;;;;4.38;1.67;;;;;;;22.49;55.14;100414.94;4995882;28;20369;-88
2022/08/12 01:13:58;;;;;;;9.23;1.85;;;;;;;22.56;54.93;100407.50;4978405;28;20038;-90
2022/08/12 01:16:24;;;;;;;5.22;1.80;;;;;;;22.57;55.38;100403.75;4998299;28;20035;-90
2022/08/12 01:18:55;;;;;;;8.30;2.45;;;;;;;22.44;55.68;100402.16;4996981;28;20042;-93
2022/08/12 01:21:26;;;;;;;7.05;2.15;;;;;;;22.42;56.00;100401.59;4996037;28;20092;-91
2022/08/12 01:24:16;;;;;;;3.60;2.07;;;;;;;22.40;55.87;100394.78;4996113;28;20026;-92
2022/08/12 01:26:45;;;;;;;4.13;1.85;;;;;;;22.38;56.36;100391.50;4995972;28;20038;-89
2022/08/12 01:29:14;;;;;;;9.52;1.75;;;;;;;22.32;56.28;100387.06;4995750;28;20035;-91
2022/08/12 01:31:42;;;;;;;3.92;1.85;;;;;;;22.29;56.53;100382.16;4978696;28;20038;-91
2022/08/12 01:34:11;;;;;;;8.95;1.85;;;;;;;22.29;56.24;100376.75;4978281;28;20045;-92
2022/08/12 01:36:57;;;;;;;7.28;2.00;;;;;;;22.35;55.99;100370.38;4995953;28;20034;-90
2022/08/12 01:39:30;;;;;;;4.55;1.90;;;;;;;22.27;56.41;100362.69;4996972;28;20038;-89
2022/08/12 01:42:01;;;;;;;12.23;1.80;;;;;;;22.29;55.70;100350.56;4995105;28;20097;-90
2022/08/12 01:44:27;;;;;;;5.32;2.05;;;;;;;22.30;55.93;100346.00;4994675;28;20394;-89
2022/08/12 01:47:10;;;;;;;3.53;1.50;;;;;;;22.26;55.86;100345.66;4994545;28;20034;-89
2022/08/12 01:49:53;;;;;;;3.33;1.52;;;;;;;22.25;55.30;100335.09;4994748;28;20035;-89
2022/08/12 01:52:43;;;;;;;5.70;1.92;;;;;;;22.29;55.17;100330.84;4961306;28;20514;-89
2022/08/12 01:55:11;;;;;;;3.50;1.50;;;;;;;22.28;54.88;100329.22;4994523;28;20030;-88
2022/08/12 01:57:46;;;;;;;5.25;1.58;;;;;;;22.25;54.74;100332.41;4995741;28;20133;-87
2022/08/12 02:00:17;;;;;;;4.53;1.40;;;;;;;22.26;54.40;100323.25;5000991;28;20038;-89
2022/08/12 02:03:02;;;;;;;4.73;1.43;;;;;;;22.28;54.27;100319.22;5000477;28;20027;-89
2022/08/12 02:11:33;;;;;;;8.82;2.15;;;;;;;22.31;53.08;100305.25;4999170;28;20045;-86
2022/08/12 02:14:11;;;;;;;5.10;1.60;;;;;;;22.37;53.16;100303.47;4997673;28;20049;-88
2022/08/12 02:16:44;;;;;;;4.70;1.48;;;;;;;22.41;52.57;100299.19;4997784;28;20050;-89
2022/08/12 02:19:38;;;;;;;3.42;1.50;;;;;;;22.43;52.34;100300.59;5000324;28;20066;-89
2022/08/12 02:22:29;;;;;;;5.75;1.40;;;;;;;22.45;52.01;100294.94;4997886;28;20141;-87
2022/08/12 02:25:14;;;;;;;4.78;1.70;;;;;;;22.45;51.88;100297.66;5002017;28;20069;-88
2022/08/12 02:27:46;;;;;;;8.52;1.58;;;;;;;22.48;51.84;100289.88;5002504;28;20034;-88
2022/08/12 02:30:15;;;;;;;2.38;1.30;;;;;;;22.54;51.67;100282.66;5003173;28;20034;-87
2022/08/12 02:32:44;;;;;;;3.85;1.55;;;;;;;22.53;51.17;100286.44;4982156;28;20468;-89
2022/08/12 02:35:16;;;;;;;4.13;1.30;;;;;;;22.58;51.30;100278.41;4999693;28;20023;-88
2022/08/12 02:37:42;;;;;;;4.23;1.50;;;;;;;22.63;50.93;100278.50;5002019;28;20042;-88
2022/08/12 02:40:10;;;;;;;2.15;1.10;;;;;;;22.66;50.39;100283.44;5001848;28;20090;-91
2022/08/12 02:42:42;;;;;;;2.65;1.50;;;;;;;22.64;50.87;100274.72;4998733;28;20039;-88
2022/08/12 02:45:10;;;;;;;8.93;1.80;;;;;;;22.64;51.07;100280.13;4996139;28;20109;-91
2022/08/12 02:47:41;;;;;;;3.28;1.63;;;;;;;22.58;51.69;100276.53;5001393;28;20046;-87
2022/08/12 02:50:09;;;;;;;6.80;1.80;;;;;;;22.69;50.66;100280.25;5004031;28;20034;-88
2022/08/12 02:52:36;;;;;;;6.05;1.70;;;;;;;22.44;52.31;100283.31;5002498;28;20053;-88
2022/08/12 02:55:17;;;;;;;6.13;1.73;;;;;;;22.17;54.35;100286.91;5000401;28;20395;-87
2022/08/12 02:57:45;;;;;;;6.00;2.05;;;;;;;21.99;55.02;100280.66;5001577;28;20077;-89
2022/08/12 03:00:14;;;;;;;11.60;2.40;;;;;;;22.07;54.68;100282.16;4996328;28;20026;-88
2022/08/12 03:02:43;;;;;;;5.40;1.67;;;;;;;22.05;54.84;100273.47;4994224;28;20420;-88
2022/08/12 03:05:11;;;;;;;4.82;2.05;;;;;;;22.12;54.94;100271.44;4993949;28;20038;-89
2022/08/12 03:07:52;;;;;;;4.05;1.88;;;;;;;21.89;55.96;100272.38;4993855;28;20045;-90
2022/08/12 03:10:21;;;;;;;3.33;1.75;;;;;;;21.94;55.79;100268.97;4993918;28;20041;-89
2022/08/12 03:12:52;;;;;;;6.00;2.17;;;;;;;22.13;55.31;100260.41;4993561;28;20060;-90
2022/08/12 03:15:23;;;;;;;6.03;1.95;;;;;;;22.08;55.29;100263.00;4976556;28;20046;-90
2022/08/12 03:18:16;;;;;;;9.48;2.28;;;;;;;22.02;55.40;100258.59;4993505;28;20084;-88
2022/08/12 03:20:42;;;;;;;9.00;2.05;;;;;;;21.90;56.26;100248.91;4994202;28;20034;-90
2022/08/12 03:23:13;;;;;;;6.45;2.00;;;;;;;21.83;57.04;100253.63;4993730;28;20034;-88
2022/08/12 03:25:40;;;;;;;4.18;2.20;;;;;;;21.81;57.16;100250.34;4997107;28;20034;-89
2022/08/12 03:28:10;;;;;;;8.55;2.33;;;;;;;21.82;57.25;100244.69;4997768;28;20030;-90
2022/08/12 03:30:37;;;;;;;6.28;2.38;;;;;;;21.83;57.88;100253.63;4980237;28;20034;-87
2022/08/12 03:33:04;;;;;;;4.75;2.25;;;;;;;21.99;57.05;100253.69;4997318;28;20136;-88
2022/08/12 03:35:34;;;;;;;7.00;1.90;;;;;;;21.83;57.73;100250.91;4997270;28;20112;-89
2022/08/12 03:38:07;;;;;;;4.57;2.35;;;;;;;21.88;57.43;100251.81;4996396;28;20101;-87
2022/08/12 04:00:47;;;;;;;9.93;3.33;;;;;;;20.76;89.35;100247.88;5018195;28;20057;-89
2022/08/12 04:06:14;;;;;;;11.68;3.70;;;;;;;20.31;87.01;100246.81;5000261;28;20077;-88
2022/08/12 04:09:01;;;;;;;6.00;3.70;;;;;;;20.44;87.96;100238.50;5055967;23;20042;-91
2022/08/12 04:15:02;;;;;;;10.85;3.70;;;;;;;20.35;88.28;100256.88;5018718;28;20019;-88
2022/08/12 04:17:46;;;;;;;12.05;4.28;;;;;;;20.38;98.78;100251.00;5019435;28;20064;-91
2022/08/12 04:20:33;;;;;;;14.07;3.97;;;;;;;20.35;100.00;100256.06;5015638;28;20042;-86
2022/08/12 04:23:08;;;;;;;8.23;3.97;;;;;;;20.26;100.00;100257.41;5019489;28;20033;-89
2022/08/12 04:25:38;;;;;;;9.65;3.75;;;;;;;20.28;96.31;100249.97;5016586;28;20030;-85
2022/08/12 04:34:45;;;;;;;11.80;3.88;;;;;;;20.62;89.93;100270.69;4995877;28;20081;-84
2022/08/12 04:37:18;;;;;;;10.27;3.80;;;;;;;20.70;98.07;100262.28;4963308;28;20446;-88
2022/08/12 04:39:45;;;;;;;9.65;4.05;;;;;;;20.62;100.00;100263.44;4997113;28;20038;-85
2022/08/12 04:42:32;;;;;;;9.48;4.07;;;;;;;20.51;100.00;100272.34;4982239;28;20066;-87
2022/08/12 04:45:25;;;;;;;8.63;4.10;;;;;;;20.62;100.00;100270.69;5019495;28;20026;-87
2022/08/12 04:48:01;;;;;;;11.82;4.00;;;;;;;20.61;100.00;100282.56;5014125;28;20030;-88
2022/08/12 04:50:29;;;;;;;11.63;4.47;;;;;;;20.57;100.00;100281.38;5013358;28;20049;-88
2022/08/12 04:53:03;;;;;;;7.40;4.05;;;;;;;20.57;100.00;100281.38;4999195;28;20046;-90
2022/08/12 04:55:44;;;;;;;11.77;4.00;;;;;;;20.70;100.00;100286.53;5018979;28;20022;-88
2022/08/12 04:58:18;;;;;;;9.80;3.97;;;;;;;20.68;100.00;100291.34;5019166;28;20034;-91
2022/08/12 05:01:31;;;;;;;14.07;4.88;;;;;;;20.70;98.66;100293.78;5011068;28;20077;-88
2022/08/12 05:04:14;;;;;;;12.07;4.68;;;;;;;20.63;98.63;100291.19;5000190;28;20452;-93
2022/08/12 05:06:54;;;;;;;14.23;4.55;;;;;;;20.69;92.46;100301.03;5019260;28;20049;-90
2022/08/12 05:12:58;;;;;;;10.07;4.38;;;;;;;20.70;91.19;100321.53;4998193;28;20033;-91
2022/08/12 05:15:27;;;;;;;7.07;4.50;;;;;;;20.78;90.93;100331.94;5018335;28;20041;-87
2022/08/12 05:17:59;;;;;;;13.63;5.00;;;;;;;20.73;92.92;100323.75;5014453;28;20038;-87
2022/08/12 05:20:44;;;;;;;7.80;4.72;;;;;;;20.69;92.24;100317.19;5012629;28;20114;-86
2022/08/12 05:23:25;;;;;;;9.55;4.70;;;;;;;20.63;92.13;100304.66;5007562;28;20098;-87
2022/08/12 05:25:55;;;;;;;8.15;4.70;;;;;;;20.79;91.00;100305.84;4988330;28;20047;-85
2022/08/12 05:28:52;;;;;;;8.77;5.10;;;;;;;20.79;90.12;100306.66;4989230;28;20034;-87
2022/08/12 05:31:38;;;;;;;12.77;5.53;;;;;;;20.57;95.24;100302.91;5009320;28;20069;-83
2022/08/12 05:34:04;;;;;;;12.05;5.10;;;;;;;20.53;93.60;100291.78;4979919;28;20052;-85
2022/08/12 05:36:48;;;;;;;11.88;4.95;;;;;;;20.36;95.24;100292.69;4997738;28;20065;-88
2022/08/12 05:39:16;;;;;;;9.02;4.95;;;;;;;20.47;95.27;100286.50;5007739;28;20031;-87
2022/08/12 05:41:43;;;;;;;9.07;5.10;;;;;;;20.57;95.79;100278.69;5005316;28;20046;-86
2022/08/12 05:44:15;;;;;;;19.30;5.63;;;;;;;20.86;93.50;100285.00;4997579;28;20112;-87
2022/08/12 05:46:40;;;;;;;8.90;4.20;;;;;;;20.82;91.21;100294.59;4996851;28;20053;-87
2022/08/12 05:49:06;;;;;;;11.32;4.55;;;;;;;20.78;92.90;100309.59;4978531;28;20038;-86
2022/08/12 05:51:36;;;;;;;14.15;5.18;;;;;;;20.80;97.16;100335.25;4982031;28;20039;-88
2022/08/12 05:54:02;;;;;;;11.05;4.57;;;;;;;20.79;98.53;100338.16;5000623;28;20041;-88
2022/08/12 05:56:31;;;;;;;11.15;4.95;;;;;;;20.72;96.33;100338.28;5006254;28;20121;-88
2022/08/12 05:59:02;;;;;;;8.10;4.30;;;;;;;20.56;91.13;100334.41;4974747;28;20061;-87
2022/08/12 06:01:29;;;;;;;9.95;4.25;;;;;;;20.55;90.33;100335.44;4973099;28;20130;-87
2022/08/12 06:03:55;;;;;;;10.02;4.00;;;;;;;20.26;92.25;100330.06;5000282;28;20081;-88
2022/08/12 06:06:22;;;;;;;11.05;4.13;;;;;;;20.05;93.64;100315.28;4996390;28;20495;-88
2022/08/12 06:08:52;;;;;;;13.40;4.28;;;;;;;20.13;92.42;100317.63;4962551;28;20042;-89
2022/08/12 06:11:24;;;;;;;10.73;4.45;;;;;;;20.51;92.58;100320.81;4980829;28;20046;-86
2022/08/12 06:13:51;;;;;;;11.32;3.80;;;;;;;20.92;90.54;100316.38;4999867;28;20034;-88
2022/08/12 06:16:23;;;;;;;7.05;3.92;;;;;;;21.33;87.43;100323.53;5001612;28;20034;-88
2022/08/12 06:18:49;;;;;;;8.82;4.05;;;;;;;21.45;86.98;100316.25;4972604;28;20034;-87
2022/08/12 06:21:23;;;;;;;10.85;3.78;;;;;;;21.77;85.04;100311.25;5009928;28;20042;-88
2022/08/12 06:23:50;;;;;;;7.63;3.57;;;;;;;22.10;80.35;100314.06;5016173;28;20034;-85
2022/08/12 06:26:19;;;;;;;10.75;3.38;;;;;;;21.99;81.43;100328.41;5014714;28;20289;-86
2022/08/12 06:28:49;;;;;;;6.07;3.10;;;;;;;21.94;79.84;100337.22;4979328;28;20070;-84
2022/08/12 06:31:19;;;;;;;12.70;3.05;;;;;;;22.14;78.53;100320.59;5011635;28;20046;-86
2022/08/12 06:33:55;;;;;;;15.18;2.97;;;;;;;22.15;78.14;100331.16;4979326;28;20097;-90
2022/08/12 06:36:24;;;;;;;5.45;3.13;;;;;;;21.94;79.61;100321.03;5004401;28;20053;-88
2022/08/12 06:39:13;;;;;;;4.40;3.20;;;;;;;21.92;79.86;100327.75;4992274;28;20094;-90
2022/08/12 06:44:42;;;;;;;5.00;2.80;;;;;;;22.46;75.65;100337.09;5008748;28;20034;-87
2022/08/12 06:47:15;;;;;;;7.57;3.20;;;;;;;22.74;75.94;100347.84;5015062;28;20084;-90
2022/08/12 06:49:58;;;;;;;6.90;3.45;;;;;;;23.22;71.37;100354.53;5014430;28;20049;-90
2022/08/12 06:52:24;;;;;;;4.43;2.40;;;;;;;23.67;70.37;100357.88;4997300;28;20038;-90
2022/08/12 06:54:57;;;;;;;9.27;2.90;;;;;;;23.53;69.22;100345.81;5001641;28;20051;-91
2022/08/12 06:57:54;;;;;;;5.18;2.92;;;;;;;23.41;69.09;100351.31;4988950;28;20101;-89
2022/08/12 07:03:42;;;;;;;10.65;2.78;;;;;;;23.08;71.57;100352.19;5020927;28;20030;-88
2022/08/12 07:06:10;;;;;;;8.30;3.20;;;;;;;23.11;71.11;100354.38;4996580;28;20542;-88
2022/08/12 07:08:41;;;;;;;4.75;3.10;;;;;;;23.32;70.94;100354.69;5013554;28;20073;-86
2022/08/12 07:11:08;;;;;;;9.57;2.58;;;;;;;23.96;66.54;100345.75;5005891;28;20038;-86
2022/08/12 07:13:42;;;;;;;7.25;2.88;;;;;;;24.47;61.94;100346.31;5006904;28;20045;-88
2022/08/12 07:16:14;;;;;;;8.57;2.85;;;;;;;24.99;59.26;100352.72;4973056;28;20407;-89
2022/08/12 07:18:46;;;;;;;7.60;2.75;;;;;;;25.09;58.74;100350.09;4991442;28;20050;-87
2022/08/12 07:21:14;;;;;;;11.75;2.50;;;;;;;25.07;57.54;100354.97;5015905;28;20089;-88
2022/08/12 07:23:41;;;;;;;3.90;2.30;;;;;;;24.71;59.58;100355.75;4976781;28;20030;-88
2022/08/12 07:26:18;;;;;;;4.55;2.25;;;;;;;24.63;60.96;100350.78;4968252;28;20041;-90
2022/08/12 07:28:44;;;;;;;4.93;2.10;;;;;;;24.52;59.77;100359.94;4983080;28;20046;-89
2022/08/12 07:31:11;;;;;;;8.63;2.20;;;;;;;24.75;59.53;100358.75;5001023;28;20073;-91
2022/08/12 07:33:43;;;;;;;6.40;1.90;;;;;;;24.79;57.61;100359.88;4997594;28;20128;-89
2022/08/12 07:36:12;;;;;;;8.20;2.33;;;;;;;24.56;58.53;100355.63;5000270;28;20439;-89
2022/08/12 07:38:41;;;;;;;4.35;1.98;;;;;;;24.79;57.96;100370.72;4969913;28;20045;-88
2022/08/12 07:41:28;;;;;;;5.90;2.35;;;;;;;24.68;58.43;100353.56;4982386;28;20549;-88
2022/08/12 07:44:14;;;;;;;6.20;2.00;;;;;;;24.75;57.62;100359.59;5001999;28;20034;-88
2022/08/12 07:46:42;;;;;;;4.40;2.10;;;;;;;24.55;57.05;100353.97;4980089;28;20606;-86
2022/08/12 07:49:14;;;;;;;5.93;2.10;;;;;;;24.39;57.58;100361.16;4998540;28;20088;-91
2022/08/12 07:51:41;;;;;;;3.58;2.20;;;;;;;24.24;59.23;100358.28;4966498;28;20573;-93
2022/08/12 07:54:10;;;;;;;4.93;2.05;;;;;;;24.21;60.28;100361.50;4986346;28;20030;-91
2022/08/12 07:56:40;;;;;;;;;;;;;;;24.78;58.43;100363.66;4992444;28;20046;-91
2022/08/12 07:59:07;;;;;;;2.78;1.70;;;;;;;25.42;55.85;100367.91;4981234;28;20383;-87
2022/08/12 08:01:36;;;;;;;4.90;2.00;;;;;;;25.94;51.33;100372.53;4980482;28;20030;-89
2022/08/12 08:06:48;;;;;;;5.53;2.55;;;;;;;25.19;54.79;100361.00;4998062;28;20550;-87
2022/08/12 08:09:16;;;;;;;3.53;2.05;;;;;;;25.17;54.68;100368.59;4998310;28;20088;-87
2022/08/12 08:14:28;;;;;;;6.13;2.10;;;;;;;24.81;57.60;100366.66;4995844;28;20479;-85
2022/08/12 08:16:58;;;;;;;6.32;2.45;;;;;;;25.63;54.63;100377.00;4998153;28;20041;-88
2022/08/12 08:19:24;;;;;;;6.95;2.78;;;;;;;26.06;53.14;100378.53;4980488;28;20034;-86
2022/08/12 08:21:54;;;;;;;3.17;2.15;;;;;;;26.00;53.05;100377.72;4979902;28;20034;-87
2022/08/12 08:24:23;;;;;;;5.80;2.50;;;;;;;26.21;51.73;100389.50;4998710;28;20069;-85
2022/08/12 08:26:52;;;;;;;7.20;2.03;;;;;;;25.67;52.66;100378.13;4980083;28;20405;-87
2022/08/12 08:29:20;;;;;;;8.85;2.00;;;;;;;25.30;54.86;100380.06;4997263;28;20463;-88
2022/08/12 08:31:52;;;;;;;6.50;2.30;;;;;;;25.25;54.95;100385.47;4980065;28;20030;-89
2022/08/12 08:34:19;;;;;;;14.40;2.10;;;;;;;24.95;56.66;100381.47;4996886;28;20043;-88
2022/08/12 08:36:45;;;;;;;13.45;2.80;;;;;;;25.06;55.20;100380.44;4980217;28;20400;-88
2022/08/12 08:39:12;;;;;;;6.68;2.08;;;;;;;24.92;55.94;100381.97;4979724;28;20038;-85
2022/08/12 08:44:22;;;;;;;9.82;2.13;;;;;;;25.04;56.29;100390.75;4996591;28;20042;-85
2022/08/12 08:46:49;;;;;;;6.45;2.05;;;;;;;25.45;55.39;100391.00;4979358;28;20076;-87
2022/08/12 08:49:16;;;;;;;5.47;2.00;;;;;;;25.44;53.66;100390.19;4980660;28;20045;-88
2022/08/12 08:51:44;;;;;;;7.55;1.70;;;;;;;25.83;52.26;100393.38;4979864;28;20026;-87
2022/08/12 08:54:11;;;;;;;3.45;1.70;;;;;;;25.88;52.88;100396.16;4998371;28;20121;-89
2022/08/12 08:56:41;;;;;;;3.28;2.20;;;;;;;25.76;52.66;100400.13;4999419;28;20065;-88
2022/08/12 08:59:15;;;;;;;4.00;1.75;;;;;;;26.09;52.17;100403.25;4989405;28;20039;-85
2022/08/12 09:01:41;;;;;;;5.78;1.85;;;;;;;26.13;50.74;100403.53;4972834;28;20042;-85
2022/08/12 09:04:09;;;;;;;3.20;1.90;;;;;;;25.82;50.48;100397.19;4990178;28;20391;-86
2022/08/12 09:06:35;;;;;;;4.30;1.83;;;;;;;25.77;51.40;100408.03;4981633;28;20042;-85
2022/08/12 09:09:04;;;;;;;8.80;1.67;;;;;;;26.26;47.56;100407.69;4984373;28;20113;-88
2022/08/12 09:14:15;;;;;;;4.57;1.35;;;;;;;26.29;45.16;100412.56;4989445;28;20051;-88
2022/08/12 09:16:49;;;;;;;6.57;1.52;;;;;;;26.44;45.51;100431.66;4971617;28;20189;-87
2022/08/12 09:19:17;;;;;;;5.35;1.40;;;;;;;26.17;46.12;100405.50;4972417;28;20121;-88
2022/08/12 09:21:47;;;;;;;2.67;1.35;;;;;;;26.17;45.99;100410.94;4977613;28;20062;-87
2022/08/12 09:24:18;;;;;;;3.75;1.52;;;;;;;26.09;46.43;100402.44;4966691;28;20392;-88
2022/08/12 09:26:47;;;;;;;5.68;1.60;;;;;;;26.54;46.52;100396.34;4981815;28;20042;-86
2022/08/12 09:29:14;;;;;;;5.15;1.50;;;;;;;27.17;44.57;100398.56;4971978;28;20049;-87
2022/08/12 09:31:43;;;;;;;4.75;1.42;;;;;;;26.90;44.83;100397.19;4993727;28;20084;-86
2022/08/12 09:34:15;;;;;;;6.05;1.75;;;;;;;26.75;44.23;100389.03;4978894;28;20039;-86
2022/08/12 09:36:42;;;;;;;4.28;1.23;;;;;;;26.67;44.53;100383.03;4983008;28;20045;-85
2022/08/12 09:39:08;;;;;;;4.93;1.30;;;;;;;26.86;42.02;100391.50;4966319;28;20033;-86
2022/08/12 09:41:42;;;;;;;4.07;1.25;;;;;;;27.43;41.61;100395.78;4983139;28;20206;-83
2022/08/12 09:46:55;;;;;;;2.80;1.40;;;;;;;28.18;39.67;100381.88;4983543;28;20073;-84
2022/08/12 09:49:21;;;;;;;3.83;1.38;;;;;;;27.91;39.71;100372.47;4961161;28;20196;-84
2022/08/12 09:51:47;;;;;;;2.85;1.33;;;;;;;28.18;39.42;100391.97;4969239;28;20041;-83
2022/08/12 09:54:15;;;;;;;14.20;1.23;;;;;;;28.36;37.69;100395.97;4982152;28;20038;-83
2022/08/12 09:56:44;;;;;;;2.25;1.20;;;;;;;28.28;38.27;100375.56;4974373;28;20407;-87
2022/08/12 09:59:10;;;;;;;5.35;1.40;;;;;;;28.43;37.40;100355.56;4975556;28;20034;-85
2022/08/12 10:01:39;;;;;;;5.47;1.73;;;;;;;28.45;35.62;100391.53;4975971;28;20038;-84
2022/08/12 10:04:09;;;;;;;2.50;1.20;;;;;;;28.22;37.13;100372.06;4976294;28;20061;-87
2022/08/12 10:06:38;;;;;;;2.88;1.20;;;;;;;28.43;37.04;100367.28;4993584;28;20065;-86
2022/08/12 10:09:12;;;;;;;4.80;1.15;;;;;;;28.60;36.80;100369.63;4994327;28;20472;-85
2022/08/12 10:14:31;;;;;;;2.03;1.30;;;;;;;29.30;34.53;100354.53;4994921;28;20118;-84
2022/08/12 10:16:57;;;;;;;11.20;1.20;;;;;;;29.01;34.79;100362.72;5000981;28;20030;-87
2022/08/12 10:19:26;;;;;;;4.50;1.17;;;;;;;28.73;35.39;100350.72;4990284;28;20039;-88
2022/08/12 10:21:52;;;;;;;6.40;1.05;;;;;;;28.90;35.38;100361.19;4981033;28;20463;-87
2022/08/12 10:24:22;;;;;;;3.67;1.17;;;;;;;28.54;36.11;100368.00;4998794;28;20089;-86
2022/08/12 10:29:38;;;;;;;2.88;0.95;;;;;;;27.91;36.57;100365.09;4987300;28;20123;-88
2022/08/12 10:32:06;;;;;;;7.22;1.23;;;;;;;28.05;37.03;100371.56;4998232;28;20369;-88
2022/08/12 10:34:32;;;;;;;3.80;1.05;;;;;;;28.12;36.45;100355.78;4990357;28;20046;-86
2022/08/12 10:37:02;;;;;;;3.13;1.15;;;;;;;28.01;37.20;100359.59;5003890;28;20027;-88
2022/08/12 10:39:34;;;;;;;7.05;1.25;;;;;;;28.16;36.85;100343.22;5007060;28;20030;-89
2022/08/12 10:44:59;;;;;;;5.75;1.55;;;;;;;28.85;35.35;100331.25;4985003;28;20042;-89
2022/08/12 10:47:30;;;;;;;6.45;1.00;;;;;;;28.66;36.24;100328.41;4985649;28;20034;-89
2022/08/12 10:50:15;;;;;;;3.92;0.95;;;;;;;28.29;35.68;100327.31;4981119;28;20473;-89
2022/08/12 10:52:46;;;;;;;2.78;1.10;;;;;;;28.32;36.35;100326.75;4996533;28;20035;-87
2022/08/12 10:55:12;;;;;;;2.90;1.05;;;;;;;28.82;35.76;100320.09;4976721;28;20518;-87
2022/08/12 10:57:37;;;;;;;4.25;1.38;;;;;;;29.47;34.63;100327.59;4995299;28;20031;-86
2022/08/12 11:00:05;;;;;;;8.13;1.27;;;;;;;29.72;34.60;100327.28;4996783;28;20042;-86
2022/08/12 11:02:31;;;;;;;2.22;1.30;;;;;;;29.82;34.68;100336.44;5011846;28;20045;-85
2022/08/12 11:04:58;;;;;;;3.83;1.10;;;;;;;29.84;35.32;100315.94;5019917;28;20114;-83
2022/08/12 11:07:25;;;;;;;3.13;1.27;;;;;;;29.48;35.63;100333.88;5002144;28;20038;-83
2022/08/12 11:09:54;;;;;;;3.33;1.58;;;;;;;29.37;36.06;100332.34;5020680;28;20037;-85
2022/08/12 11:12:20;;;;;;;3.65;1.27;;;;;;;28.85;36.74;100325.78;4984210;28;20103;-87
2022/08/12 11:14:46;;;;;;;3.85;1.65;;;;;;;28.47;38.11;100302.09;5016140;28;20038;-84
2022/08/12 11:17:13;;;;;;;4.07;1.83;;;;;;;28.52;38.86;100310.22;5001909;28;20483;-85
2022/08/12 11:19:42;;;;;;;6.88;1.52;;;;;;;28.20;38.45;100300.69;4994939;28;20061;-86
2022/08/12 11:22:09;;;;;;;3.90;1.35;;;;;;;28.16;39.36;100291.44;4995337;28;20032;-84
2022/08/12 11:24:35;;;;;;;3.55;1.20;;;;;;;27.89;39.85;100318.28;4994536;28;20181;-85
2022/08/12 11:27:05;;;;;;;4.53;1.50;;;;;;;27.87;40.20;100308.75;4978722;28;20037;-86
2022/08/12 11:29:32;;;;;;;8.07;1.48;;;;;;;28.13;39.94;100294.72;4994835;28;20046;-86
2022/08/12 11:31:57;;;;;;;2.38;1.42;;;;;;;28.71;39.13;100292.09;4996149;28;20038;-83
2022/08/12 11:34:23;;;;;;;2.55;1.30;;;;;;;29.58;37.17;100284.59;4996121;28;20022;-85
2022/08/12 11:36:54;;;;;;;3.20;1.42;;;;;;;29.53;36.97;100287.41;4995855;28;20522;-86
2022/08/12 11:39:21;;;;;;;5.65;1.67;;;;;;;29.67;36.88;100289.09;4997088;28;20070;-84
2022/08/12 11:41:46;;;;;;;3.10;1.33;;;;;;;29.63;36.93;100290.00;4989992;28;20035;-87
2022/08/12 11:44:12;;;;;;;4.30;1.10;;;;;;;29.32;37.90;100288.75;4983665;28;20037;-84
2022/08/12 11:46:40;;;;;;;6.78;1.38;;;;;;;29.10;37.86;100290.03;4984322;28;20062;-85
2022/08/12 11:49:06;;;;;;;5.72;1.17;;;;;;;28.77;38.54;100299.13;4983964;28;20122;-88
2022/08/12 11:51:33;;;;;;;3.90;1.52;;;;;;;28.60;38.99;100271.44;4982865;28;20038;-86
2022/08/12 11:53:59;;;;;;;2.85;1.20;;;;;;;28.43;39.31;100273.78;4981756;28;20038;-87
2022/08/12 11:56:25;;;;;;;4.18;1.65;;;;;;;28.29;40.37;100267.34;4991421;28;20037;-85
2022/08/12 11:58:51;;;;;;;2.97;1.30;;;;;;;28.19;40.15;100263.59;4978751;28;20126;-86
2022/08/12 12:01:17;;;;;;;2.38;1.20;;;;;;;28.23;40.23;100263.84;4978879;28;20077;-87
2022/08/12 12:03:43;;;;;;;2.50;1.27;;;;;;;28.42;39.30;100255.78;4979477;28;20655;-89
2022/08/12 12:06:08;;;;;;;4.22;1.40;;;;;;;28.31;40.71;100256.97;4960530;28;20034;-89
2022/08/12 12:08:37;;;;;;;3.97;1.40;;;;;;;28.19;41.09;100269.06;4964803;28;20031;-88
2022/08/12 12:11:03;;;;;;;2.13;1.38;;;;;;;28.07;41.34;100241.34;4987236;28;20053;-84
2022/08/12 12:13:28;;;;;;;4.53;1.50;;;;;;;28.08;41.56;100242.16;4985668;28;20039;-85
2022/08/12 12:15:54;;;;;;;2.80;1.50;;;;;;;28.14;41.48;100238.28;4978234;28;20094;-87
2022/08/12 12:18:20;;;;;;;5.28;1.70;;;;;;;28.26;40.65;100236.03;4979608;28;20560;-86
2022/08/12 12:20:46;;;;;;;2.05;1.20;;;;;;;28.09;41.08;100246.50;4978588;28;20163;-86
2022/08/12 12:23:12;;;;;;;6.88;1.50;;;;;;;28.26;41.05;100235.22;4984200;28;20045;-85
2022/08/12 12:25:39;;;;;;;5.47;1.35;;;;;;;28.20;41.06;100227.09;4963552;28;20035;-86
2022/08/12 12:28:04;;;;;;;7.22;1.85;;;;;;;28.30;40.46;100222.63;4982593;28;20033;-86
2022/08/12 12:30:30;;;;;;;8.43;1.55;;;;;;;28.23;40.66;100226.50;4994733;28;20034;-88
2022/08/12 12:32:56;;;;;;;3.13;1.50;;;;;;;28.17;41.42;100229.56;4977192;28;20049;-87
2022/08/12 12:35:21;;;;;;;2.97;1.52;;;;;;;28.16;41.75;100217.84;4980664;28;20042;-89
2022/08/12 12:37:58;;;;;;;7.75;1.58;;;;;;;28.17;41.67;100222.19;4977417;28;20039;-87
2022/08/12 12:40:25;;;;;;;6.78;1.30;;;;;;;28.36;41.33;100216.03;4974618;28;20400;-86
2022/08/12 12:42:52;;;;;;;6.63;1.65;;;;;;;28.45;40.46;100211.59;4985248;28;20030;-89
2022/08/12 12:45:18;;;;;;;5.72;1.67;;;;;;;28.10;40.96;100221.72;4988225;28;20506;-87
2022/08/12 12:47:57;;;;;;;4.63;1.67;;;;;;;28.04;40.41;100201.00;4961205;28;20034;-86
2022/08/12 12:50:29;;;;;;;2.15;1.38;;;;;;;28.03;40.75;100199.41;4961600;28;20537;-87
2022/08/12 12:52:54;;;;;;;5.83;1.27;;;;;;;28.22;40.55;100200.34;4958250;28;20521;-84
2022/08/12 12:55:21;;;;;;;3.33;1.20;;;;;;;28.21;40.33;100192.44;4975550;28;20285;-86
2022/08/12 12:57:47;;;;;;;3.05;1.33;;;;;;;28.43;39.91;100200.16;4974843;28;20038;-86
2022/08/12 13:00:15;;;;;;;1.77;1.20;;;;;;;28.60;40.71;100195.88;4973983;28;20066;-84
2022/08/12 13:02:49;;;;;;;2.78;1.20;;;;;;;28.57;39.80;100192.94;4994902;28;20041;-86
2022/08/12 13:05:17;;;;;;;6.85;1.38;;;;;;;28.44;40.94;100193.63;4994467;28;20034;-86
2022/08/12 13:07:42;;;;;;;11.68;1.70;;;;;;;28.49;40.13;100196.28;4960518;28;20045;-84
2022/08/12 13:10:08;;;;;;;4.47;1.25;;;;;;;28.53;39.64;100183.72;4989236;28;20030;-85
2022/08/12 13:12:34;;;;;;;5.80;1.30;;;;;;;28.62;39.58;100193.69;4976370;28;20041;-85
2022/08/12 13:15:02;;;;;;;2.65;1.45;;;;;;;28.81;39.15;100182.88;4976682;28;20042;-85
2022/08/12 13:17:31;;;;;;;7.03;1.60;;;;;;;28.74;39.54;100185.94;4993792;28;20365;-86
2022/08/12 13:20:03;;;;;;;3.75;1.52;;;;;;;28.77;39.59;100176.34;4994048;28;20045;-86
2022/08/12 13:22:29;;;;;;;2.47;1.42;;;;;;;29.03;38.68;100180.44;4993708;28;20066;-87
2022/08/12 13:24:58;;;;;;;3.38;1.40;;;;;;;28.93;39.02;100175.09;4995450;28;20483;-85
2022/08/12 13:27:32;;;;;;;4.28;1.42;;;;;;;28.70;39.14;100182.16;4976216;28;20037;-83
2022/08/12 13:29:57;;;;;;;3.50;1.15;;;;;;;28.77;38.86;100165.44;4978224;28;20458;-85
2022/08/12 13:32:27;;;;;;;6.55;1.25;;;;;;;28.85;38.53;100161.28;4960880;28;20030;-87
2022/08/12 13:34:53;;;;;;;5.43;1.23;;;;;;;28.93;38.80;100175.09;4999416;28;20035;-86
2022/08/12 13:37:25;;;;;;;5.22;1.50;;;;;;;28.78;38.49;100166.25;4990788;28;20034;-86
2022/08/12 13:39:51;;;;;;;10.32;1.40;;;;;;;28.74;39.25;100160.56;4984454;28;20026;-88
2022/08/12 13:42:18;;;;;;;8.70;1.60;;;;;;;28.85;38.06;100169.47;4977122;28;20089;-85
2022/08/12 13:44:43;;;;;;;2.75;1.17;;;;;;;28.87;38.05;100153.63;4998035;28;20041;-87
2022/08/12 13:47:10;;;;;;;2.15;1.20;;;;;;;28.67;38.32;100160.09;4996464;28;20038;-87